createdAt,value
2023-08-29T00:00:39.401Z,83.95
2023-08-29T00:06:05.897Z,84.58
2023-08-29T00:11:11.709Z,86.40
2023-08-29T00:16:18.073Z,87.77
2023-08-29T00:21:23.783Z,88.77
2023-08-29T00:26:29.476Z,89.84
2023-08-29T00:31:35.450Z,90.61
2023-08-29T00:36:40.986Z,90.80
2023-08-29T00:41:50.377Z,90.97
2023-08-29T00:46:56.254Z,91.02
2023-08-29T00:52:03.652Z,91.53
2023-08-29T00:57:09.762Z,91.59
2023-08-29T01:02:15.573Z,91.60
2023-08-29T01:07:21.104Z,91.79
2023-08-29T01:12:43.671Z,92.23
2023-08-29T01:17:56.049Z,93.24
2023-08-29T01:23:15.374Z,93.97
2023-08-29T01:28:23.078Z,94.29
2023-08-29T01:33:29.192Z,95.09
2023-08-29T01:38:34.796Z,95.03
2023-08-29T01:43:40.490Z,95.17
2023-08-29T01:48:46.486Z,95.52
2023-08-29T01:53:52.012Z,95.63
2023-08-29T01:59:00.156Z,96.13
2023-08-29T02:04:06.202Z,96.49
2023-08-29T02:09:12.300Z,96.52
2023-08-29T02:14:18.037Z,96.56
2023-08-29T02:19:23.773Z,96.78
2023-08-29T02:24:30.250Z,96.74
2023-08-29T02:29:36.533Z,97.01
2023-08-29T02:34:42.380Z,96.77
2023-08-29T02:39:47.910Z,96.88
2023-08-29T02:44:53.504Z,97.00
2023-08-29T02:50:00.025Z,96.85
2023-08-29T02:55:09.055Z,96.74
2023-08-29T03:00:16.777Z,97.02
2023-08-29T03:05:23.114Z,97.43
2023-08-29T03:10:28.934Z,97.70
2023-08-29T03:15:35.588Z,98.02
2023-08-29T03:20:43.279Z,98.61
2023-08-29T03:25:49.417Z,98.88
2023-08-29T03:30:55.321Z,99.14
2023-08-29T03:36:01.361Z,99.05
2023-08-29T03:41:07.324Z,99.47
2023-08-29T03:46:12.990Z,99.86
2023-08-29T03:51:18.638Z,100.00
2023-08-29T03:56:24.351Z,100.00
2023-08-29T04:01:30.601Z,100.00
2023-08-29T04:06:36.416Z,100.00
2023-08-29T04:11:41.985Z,100.00
2023-08-29T04:16:48.974Z,100.00
2023-08-29T04:21:54.670Z,100.00
2023-08-29T04:27:00.526Z,99.81
2023-08-29T04:32:07.115Z,99.37
2023-08-29T04:37:12.770Z,98.77
2023-08-29T04:42:18.570Z,98.23
2023-08-29T04:47:24.355Z,97.87
2023-08-29T04:52:30.373Z,97.54
2023-08-29T04:57:36.084Z,97.37
2023-08-29T05:02:41.697Z,96.79
2023-08-29T05:07:47.611Z,96.69
2023-08-29T05:12:53.289Z,96.32
2023-08-29T05:17:59.199Z,95.89
2023-08-29T05:23:05.289Z,96.11
2023-08-29T05:28:11.628Z,95.87
2023-08-29T05:33:17.712Z,95.39
2023-08-29T05:38:26.559Z,95.53
2023-08-29T05:43:32.254Z,95.37
2023-08-29T05:48:37.974Z,95.34
2023-08-29T05:53:43.726Z,95.26
2023-08-29T05:58:49.566Z,94.84
2023-08-29T06:03:55.560Z,94.34
2023-08-29T06:09:02.024Z,93.72
2023-08-29T06:14:08.734Z,93.34
2023-08-29T06:19:14.320Z,92.85
2023-08-29T06:24:20.480Z,92.00
2023-08-29T06:29:26.251Z,91.29
2023-08-29T06:34:31.914Z,90.44
2023-08-29T06:39:38.527Z,89.15
2023-08-29T06:44:43.972Z,87.98
2023-08-29T06:49:49.579Z,87.02
2023-08-29T06:54:55.431Z,86.14
2023-08-29T07:00:00.882Z,84.27
2023-08-29T07:05:09.740Z,82.43
2023-08-29T07:10:16.154Z,80.63
2023-08-29T07:15:22.259Z,80.22
2023-08-29T07:20:28.088Z,78.93
2023-08-29T07:25:44.871Z,77.20
2023-08-29T07:30:52.671Z,74.04
2023-08-29T07:36:02.307Z,70.95
2023-08-29T07:41:08.486Z,69.97
2023-08-29T07:46:14.479Z,67.11
2023-08-29T07:51:20.134Z,64.80
2023-08-29T07:56:25.946Z,64.35
2023-08-29T08:01:31.954Z,66.65
2023-08-29T08:06:37.710Z,67.67
2023-08-29T08:11:43.528Z,69.30
2023-08-29T08:16:49.243Z,70.68
2023-08-29T08:21:55.199Z,71.91
2023-08-29T08:27:00.712Z,72.06
2023-08-29T08:32:06.754Z,73.00
2023-08-29T08:37:12.831Z,73.55
2023-08-29T08:42:19.633Z,74.00
2023-08-29T08:47:26.629Z,73.75
2023-08-29T08:52:34.609Z,73.40
2023-08-29T08:57:40.709Z,73.14
2023-08-29T09:02:48.169Z,73.02
2023-08-29T09:07:54.236Z,73.71
2023-08-29T09:12:59.999Z,74.20
2023-08-29T09:18:07.428Z,73.93
2023-08-29T09:23:24.169Z,74.16
2023-08-29T09:28:30.373Z,74.77
2023-08-29T09:33:37.386Z,74.21
2023-08-29T09:38:43.433Z,73.53
2023-08-29T09:43:50.716Z,74.15
2023-08-29T09:48:59.273Z,71.93
2023-08-29T09:54:12.151Z,71.03
2023-08-29T09:59:22.028Z,71.17
2023-08-29T10:04:30.373Z,69.23
2023-08-29T10:09:37.168Z,69.04
2023-08-29T10:14:45.159Z,68.29
2023-08-29T10:19:52.356Z,67.78
2023-08-29T10:25:00.439Z,67.30
2023-08-29T10:30:08.036Z,67.94
2023-08-29T10:35:24.637Z,67.04
2023-08-29T10:40:36.954Z,65.47
2023-08-29T10:45:49.767Z,65.73
2023-08-29T10:51:12.508Z,65.73
2023-08-29T10:56:19.495Z,65.27
2023-08-29T11:01:32.359Z,64.33
2023-08-29T11:06:55.213Z,64.03
2023-08-29T11:12:14.303Z,65.24
2023-08-29T11:17:27.108Z,66.22
2023-08-29T11:22:33.305Z,67.20
2023-08-29T11:27:40.394Z,65.56
2023-08-29T11:32:53.111Z,65.87
2023-08-29T11:38:00.473Z,66.03
2023-08-29T11:43:23.771Z,66.11
2023-08-29T11:48:35.155Z,66.14
2023-08-29T11:53:40.888Z,66.95
2023-08-29T11:58:47.043Z,66.37
2023-08-29T12:03:54.048Z,66.44
2023-08-29T12:09:01.310Z,65.10
2023-08-29T12:14:08.694Z,64.65
2023-08-29T12:19:17.956Z,65.24
2023-08-29T12:24:24.072Z,65.54
2023-08-29T12:29:30.002Z,66.17
2023-08-29T12:34:35.765Z,67.39
2023-08-29T12:39:41.694Z,66.39
2023-08-29T12:44:47.490Z,67.08
2023-08-29T12:49:53.741Z,66.43
2023-08-29T12:54:59.319Z,66.53
2023-08-29T13:00:08.374Z,67.15
2023-08-29T13:05:14.268Z,66.83
2023-08-29T13:10:20.130Z,68.07
2023-08-29T13:15:33.775Z,69.45
2023-08-29T13:20:45.361Z,69.82
2023-08-29T13:25:51.048Z,70.08
2023-08-29T13:30:59.896Z,71.41
2023-08-29T13:36:07.386Z,71.71
2023-08-29T13:41:13.416Z,72.81
2023-08-29T13:46:19.284Z,72.31
2023-08-29T13:51:26.531Z,69.59
2023-08-29T13:56:33.333Z,68.86
2023-08-29T14:01:42.937Z,66.85
2023-08-29T14:06:49.699Z,66.23
2023-08-29T14:11:55.623Z,67.29
2023-08-29T14:17:01.270Z,66.74
2023-08-29T14:22:07.173Z,66.96
2023-08-29T14:27:13.175Z,67.81
2023-08-29T14:32:18.824Z,67.06
2023-08-29T14:37:24.628Z,66.93
2023-08-29T14:42:30.406Z,68.25
2023-08-29T14:47:37.793Z,69.38
2023-08-29T14:52:43.528Z,69.47
2023-08-29T14:57:49.709Z,70.64
2023-08-29T15:02:55.905Z,72.07
2023-08-29T15:08:02.651Z,72.41
2023-08-29T15:13:09.399Z,73.42
2023-08-29T15:18:15.439Z,73.39
2023-08-29T15:23:21.070Z,73.99
2023-08-29T15:28:30.027Z,74.65
2023-08-29T15:33:36.822Z,75.52
2023-08-29T15:38:43.851Z,75.59
2023-08-29T15:43:49.711Z,74.88
2023-08-29T15:48:55.275Z,74.99
2023-08-29T15:54:00.817Z,75.65
2023-08-29T15:59:07.390Z,76.34
2023-08-29T16:04:13.106Z,76.64
2023-08-29T16:09:31.155Z,77.24
2023-08-29T16:14:37.354Z,78.08
2023-08-29T16:19:45.414Z,78.30
2023-08-29T16:24:57.178Z,79.19
2023-08-29T16:30:02.988Z,80.35
2023-08-29T16:35:09.705Z,81.09
2023-08-29T16:40:15.623Z,81.65
2023-08-29T16:45:21.308Z,82.71
2023-08-29T16:50:27.374Z,83.57
2023-08-29T16:55:37.658Z,84.39
2023-08-29T17:00:43.513Z,84.91
2023-08-29T17:05:49.270Z,85.51
2023-08-29T17:10:55.443Z,86.67
2023-08-29T17:16:01.790Z,87.85
2023-08-29T17:21:07.521Z,88.31
2023-08-29T17:26:13.148Z,88.53
2023-08-29T17:31:18.801Z,89.38
2023-08-29T17:36:27.491Z,90.63
2023-08-29T17:41:35.812Z,91.47
2023-08-29T17:46:44.676Z,92.75
2023-08-29T17:51:50.306Z,93.49
2023-08-29T17:56:57.789Z,94.43
2023-08-29T18:02:03.948Z,95.30
2023-08-29T18:07:09.764Z,95.90
2023-08-29T18:12:15.522Z,96.46
2023-08-29T18:17:21.454Z,97.13
2023-08-29T18:22:27.834Z,97.55
2023-08-29T18:27:33.661Z,97.59
2023-08-29T18:32:39.419Z,97.40
2023-08-29T18:37:45.488Z,96.92
2023-08-29T18:42:51.920Z,96.99
2023-08-29T18:47:58.107Z,97.46
2023-08-29T18:53:05.014Z,97.43
2023-08-29T18:58:11.879Z,98.03
2023-08-29T19:03:20.112Z,98.52
2023-08-29T19:08:26.353Z,98.65
2023-08-29T19:13:34.460Z,98.88
2023-08-29T19:18:40.759Z,99.21
2023-08-29T19:23:47.835Z,99.80
2023-08-29T19:29:01.110Z,99.87
2023-08-29T19:34:09.490Z,99.98
2023-08-29T19:39:18.889Z,100.00
2023-08-29T19:44:37.271Z,100.00
2023-08-29T19:49:48.583Z,100.00
2023-08-29T19:54:55.039Z,100.00
2023-08-29T20:00:06.403Z,100.00
2023-08-29T20:05:19.216Z,100.00
2023-08-29T20:10:25.342Z,100.00
2023-08-29T20:15:31.391Z,100.00
2023-08-29T20:20:41.659Z,100.00
2023-08-29T20:25:47.529Z,100.00
2023-08-29T20:30:58.509Z,100.00
2023-08-29T20:36:06.652Z,100.00
2023-08-29T20:41:12.503Z,100.00
2023-08-29T20:46:18.461Z,100.00
2023-08-29T20:51:24.548Z,100.00
2023-08-29T20:56:36.762Z,100.00
2023-08-29T21:01:46.174Z,100.00
2023-08-29T21:06:51.778Z,100.00
2023-08-29T21:11:57.573Z,100.00
2023-08-29T21:17:03.917Z,100.00
2023-08-29T21:22:09.523Z,100.00
2023-08-29T21:27:20.684Z,100.00
2023-08-29T21:32:26.195Z,100.00
2023-08-29T21:37:45.932Z,100.00
2023-08-29T21:42:51.666Z,100.00
2023-08-29T21:47:57.859Z,100.00
2023-08-29T21:53:04.364Z,100.00
2023-08-29T21:58:17.693Z,100.00
2023-08-29T22:03:24.796Z,100.00
2023-08-29T22:08:30.527Z,100.00
2023-08-29T22:13:36.134Z,100.00
2023-08-29T22:18:41.772Z,100.00
2023-08-29T22:23:47.773Z,100.00
2023-08-29T22:28:53.315Z,100.00
2023-08-29T22:33:59.103Z,100.00
2023-08-29T22:39:04.741Z,100.00
2023-08-29T22:44:10.697Z,100.00
2023-08-29T22:49:16.349Z,100.00
2023-08-29T22:54:22.076Z,100.00
2023-08-29T22:59:30.202Z,100.00
2023-08-29T23:04:36.073Z,100.00
2023-08-29T23:09:43.722Z,100.00
2023-08-29T23:14:49.263Z,100.00
2023-08-29T23:20:09.362Z,100.00
2023-08-29T23:25:17.242Z,100.00
2023-08-29T23:30:23.355Z,100.00
2023-08-29T23:35:29.038Z,100.00
2023-08-29T23:40:38.397Z,100.00
2023-08-29T23:45:44.461Z,100.00
2023-08-29T23:50:50.273Z,100.00
2023-08-29T23:55:56.038Z,100.00
